Forside
METAR-TAF:

METAR-TAF

Lufthavne :

Najran, Saudi-Arabien

Breddekreds: 17-37N, længdekreds: 044-25E, højde: 1212 m

Aktuelle vejr

Denne rapport blev lavet for 53 minutter siden, kl. 23:00 UTC
Vind stille
Temperatur 30°C
Fugtighed 25%
Tryk 1011 hPa
Sigt 10 km eller mere
Nogle få skyer i en højde af 3000 ft
Spredte skyer i en højde af 9000 ft

METAR: OENG 162300Z 00000KT 9999 FEW030 SCT090 30/08 Q1011 NOSIG

Tid: 02:53 (23:53 UTC)

Vejrudsigter

Denne rapport blev lavet for 53 minutter siden, kl. 23:00 UTC
Foreløbig gælder fra 17 på 00 UTC til 18 på 06 UTC
Vind 6 kt fra vestnordvest med vindstød på up til 16 kt
Sigt: 7000 m
Midlertidig
fra 17 på 06 UTC til 17 på 14 UTC
Sigt: 3500 m
Nogle få skyer i en højde af 3000 ft
Spredte skyer i en højde af 9000 ft
Udbredt støv, blæsende støv

TAF: OENG 162300Z 1700/1806 30006G16KT 7000 NSC TEMPO 1706/1714 3500 DU BLDU FEW030 SCT090

Vejrobservationer og prognoser fra mere end 4000 lufthavne (METAR og TAF).

De gule og røde prikker repræsenterer de meteorologiske stationer.

Flyt musen over at se navnet på stationen.

Så klik over at se vejr observationer og prognoser.

At skifte det kort: Klik på de grønne knapper med et sort kors for at zoome ind; på den grønne knap med en bindestreg for at zoome ud; eller på de grønne pile for tilstødende kort.


METAR-TAF: